sensor_id;sensor_type;location;lat;lon;timestamp;temperature;humidity
18305;DHT22;9278;52.156;21.048;2023-05-10T00:01:46;6.70;99.90
18305;DHT22;9278;52.156;21.048;2023-05-10T00:04:14;6.60;99.90
18305;DHT22;9278;52.156;21.048;2023-05-10T00:06:43;6.50;99.90
18305;DHT22;9278;52.156;21.048;2023-05-10T00:09:11;6.40;99.90
18305;DHT22;9278;52.156;21.048;2023-05-10T00:11:40;6.50;99.90
18305;DHT22;9278;52.156;21.048;2023-05-10T00:14:09;6.50;99.90
18305;DHT22;9278;52.156;21.048;2023-05-10T00:16:37;6.40;99.90
18305;DHT22;9278;52.156;21.048;2023-05-10T00:19:05;6.20;99.90
18305;DHT22;9278;52.156;21.048;2023-05-10T00:21:33;6.30;99.90
18305;DHT22;9278;52.156;21.048;2023-05-10T00:24:01;6.30;99.90
18305;DHT22;9278;52.156;21.048;2023-05-10T00:26:30;6.30;99.90
18305;DHT22;9278;52.156;21.048;2023-05-10T00:28:59;6.20;99.90
18305;DHT22;9278;52.156;21.048;2023-05-10T00:31:28;6.30;99.90
18305;DHT22;9278;52.156;21.048;2023-05-10T00:33:57;6.10;99.90
18305;DHT22;9278;52.156;21.048;2023-05-10T00:36:25;6.10;99.90
18305;DHT22;9278;52.156;21.048;2023-05-10T00:38:54;6.10;99.90
18305;DHT22;9278;52.156;21.048;2023-05-10T00:41:22;6.00;99.90
18305;DHT22;9278;52.156;21.048;2023-05-10T00:43:51;6.00;99.90
18305;DHT22;9278;52.156;21.048;2023-05-10T00:46:20;6.10;99.90
18305;DHT22;9278;52.156;21.048;2023-05-10T00:48:49;6.20;99.90
18305;DHT22;9278;52.156;21.048;2023-05-10T00:51:17;6.10;99.90
18305;DHT22;9278;52.156;21.048;2023-05-10T00:53:46;6.10;99.90
18305;DHT22;9278;52.156;21.048;2023-05-10T00:56:15;6.00;99.90
18305;DHT22;9278;52.156;21.048;2023-05-10T00:58:43;6.10;99.90
18305;DHT22;9278;52.156;21.048;2023-05-10T01:01:11;6.10;99.90
18305;DHT22;9278;52.156;21.048;2023-05-10T01:03:41;6.00;99.90
18305;DHT22;9278;52.156;21.048;2023-05-10T01:06:10;6.00;99.90
18305;DHT22;9278;52.156;21.048;2023-05-10T01:08:38;5.80;99.90
18305;DHT22;9278;52.156;21.048;2023-05-10T01:11:07;6.10;99.90
18305;DHT22;9278;52.156;21.048;2023-05-10T01:13:36;6.00;99.90
18305;DHT22;9278;52.156;21.048;2023-05-10T01:16:06;6.00;99.90
18305;DHT22;9278;52.156;21.048;2023-05-10T01:18:38;5.90;99.90
18305;DHT22;9278;52.156;21.048;2023-05-10T01:21:17;5.80;99.90
18305;DHT22;9278;52.156;21.048;2023-05-10T01:24:19;5.80;99.90
18305;DHT22;9278;52.156;21.048;2023-05-10T01:27:17;5.80;99.90
18305;DHT22;9278;52.156;21.048;2023-05-10T01:32:48;5.90;99.90
18305;DHT22;9278;52.156;21.048;2023-05-10T01:35:23;5.80;99.90
18305;DHT22;9278;52.156;21.048;2023-05-10T01:38:04;5.80;99.90
18305;DHT22;9278;52.156;21.048;2023-05-10T01:40:39;5.80;99.90
18305;DHT22;9278;52.156;21.048;2023-05-10T01:43:13;5.80;99.90
18305;DHT22;9278;52.156;21.048;2023-05-10T01:45:50;5.80;99.90
18305;DHT22;9278;52.156;21.048;2023-05-10T01:48:24;5.90;99.90
18305;DHT22;9278;52.156;21.048;2023-05-10T01:50:56;5.70;99.90
18305;DHT22;9278;52.156;21.048;2023-05-10T01:53:26;5.80;99.90
18305;DHT22;9278;52.156;21.048;2023-05-10T01:55:55;5.80;99.90
18305;DHT22;9278;52.156;21.048;2023-05-10T01:58:31;5.80;99.90
18305;DHT22;9278;52.156;21.048;2023-05-10T02:01:03;5.70;99.90
18305;DHT22;9278;52.156;21.048;2023-05-10T02:03:34;5.60;99.90
18305;DHT22;9278;52.156;21.048;2023-05-10T02:06:05;5.60;99.90
18305;DHT22;9278;52.156;21.048;2023-05-10T02:08:35;5.60;99.90
18305;DHT22;9278;52.156;21.048;2023-05-10T02:11:04;5.60;99.90
18305;DHT22;9278;52.156;21.048;2023-05-10T02:13:34;5.60;99.90
18305;DHT22;9278;52.156;21.048;2023-05-10T02:16:05;5.60;99.90
18305;DHT22;9278;52.156;21.048;2023-05-10T02:18:36;5.60;99.90
18305;DHT22;9278;52.156;21.048;2023-05-10T02:21:04;5.50;99.90
18305;DHT22;9278;52.156;21.048;2023-05-10T02:23:33;5.50;99.90
18305;DHT22;9278;52.156;21.048;2023-05-10T02:26:02;5.50;99.90
18305;DHT22;9278;52.156;21.048;2023-05-10T02:28:33;5.60;99.90
18305;DHT22;9278;52.156;21.048;2023-05-10T02:31:01;5.60;99.90
18305;DHT22;9278;52.156;21.048;2023-05-10T02:33:31;5.60;99.90
18305;DHT22;9278;52.156;21.048;2023-05-10T02:36:02;5.40;99.90
18305;DHT22;9278;52.156;21.048;2023-05-10T02:38:31;5.40;99.90
18305;DHT22;9278;52.156;21.048;2023-05-10T02:41:02;5.40;99.90
18305;DHT22;9278;52.156;21.048;2023-05-10T02:43:32;5.50;99.90
18305;DHT22;9278;52.156;21.048;2023-05-10T02:46:01;5.50;99.90
18305;DHT22;9278;52.156;21.048;2023-05-10T02:48:30;5.70;99.90
18305;DHT22;9278;52.156;21.048;2023-05-10T02:51:03;5.50;99.90
18305;DHT22;9278;52.156;21.048;2023-05-10T02:53:35;5.70;99.90
18305;DHT22;9278;52.156;21.048;2023-05-10T02:56:10;5.50;99.90
18305;DHT22;9278;52.156;21.048;2023-05-10T02:58:40;5.50;99.90
18305;DHT22;9278;52.156;21.048;2023-05-10T03:01:08;5.50;99.90
18305;DHT22;9278;52.156;21.048;2023-05-10T03:03:37;5.40;99.90
18305;DHT22;9278;52.156;21.048;2023-05-10T03:06:08;5.40;99.90
18305;DHT22;9278;52.156;21.048;2023-05-10T03:08:36;5.40;99.90
18305;DHT22;9278;52.156;21.048;2023-05-10T03:11:21;5.50;99.90
18305;DHT22;9278;52.156;21.048;2023-05-10T03:14:04;5.50;99.90
18305;DHT22;9278;52.156;21.048;2023-05-10T03:16:42;5.50;99.90
18305;DHT22;9278;52.156;21.048;2023-05-10T03:19:19;5.50;99.90
18305;DHT22;9278;52.156;21.048;2023-05-10T03:21:53;5.50;99.90
18305;DHT22;9278;52.156;21.048;2023-05-10T03:24:25;5.60;99.90
18305;DHT22;9278;52.156;21.048;2023-05-10T03:26:59;5.60;99.90
18305;DHT22;9278;52.156;21.048;2023-05-10T03:29:30;5.60;99.90
18305;DHT22;9278;52.156;21.048;2023-05-10T03:31:59;5.60;99.90
18305;DHT22;9278;52.156;21.048;2023-05-10T03:34:30;5.60;99.90
18305;DHT22;9278;52.156;21.048;2023-05-10T03:37:00;5.50;99.90
18305;DHT22;9278;52.156;21.048;2023-05-10T03:39:31;5.60;99.90
18305;DHT22;9278;52.156;21.048;2023-05-10T03:42:00;5.60;99.90
18305;DHT22;9278;52.156;21.048;2023-05-10T03:44:30;5.60;99.90
18305;DHT22;9278;52.156;21.048;2023-05-10T03:47:00;5.60;99.90
18305;DHT22;9278;52.156;21.048;2023-05-10T03:49:28;5.70;99.90
18305;DHT22;9278;52.156;21.048;2023-05-10T03:51:56;5.60;99.90
18305;DHT22;9278;52.156;21.048;2023-05-10T03:54:26;5.70;99.90
18305;DHT22;9278;52.156;21.048;2023-05-10T03:56:54;5.80;99.90
18305;DHT22;9278;52.156;21.048;2023-05-10T03:59:23;5.80;99.90
18305;DHT22;9278;52.156;21.048;2023-05-10T04:01:51;5.90;99.90
18305;DHT22;9278;52.156;21.048;2023-05-10T04:04:20;6.00;99.90
18305;DHT22;9278;52.156;21.048;2023-05-10T04:06:49;6.20;99.90
18305;DHT22;9278;52.156;21.048;2023-05-10T04:09:18;6.70;99.90
18305;DHT22;9278;52.156;21.048;2023-05-10T04:11:48;6.30;99.90
18305;DHT22;9278;52.156;21.048;2023-05-10T04:14:16;6.30;99.90
18305;DHT22;9278;52.156;21.048;2023-05-10T04:16:44;6.40;99.90
18305;DHT22;9278;52.156;21.048;2023-05-10T04:19:12;6.50;99.90
18305;DHT22;9278;52.156;21.048;2023-05-10T04:21:41;6.60;99.90
18305;DHT22;9278;52.156;21.048;2023-05-10T04:24:09;6.70;99.90
18305;DHT22;9278;52.156;21.048;2023-05-10T04:26:39;6.80;99.90
18305;DHT22;9278;52.156;21.048;2023-05-10T04:29:08;6.90;99.90
18305;DHT22;9278;52.156;21.048;2023-05-10T04:31:37;7.00;99.90
18305;DHT22;9278;52.156;21.048;2023-05-10T04:34:05;7.00;99.90
18305;DHT22;9278;52.156;21.048;2023-05-10T04:36:33;7.10;99.90
18305;DHT22;9278;52.156;21.048;2023-05-10T04:39:03;7.10;99.90
18305;DHT22;9278;52.156;21.048;2023-05-10T04:41:31;7.20;99.90
18305;DHT22;9278;52.156;21.048;2023-05-10T04:43:59;7.30;99.90
18305;DHT22;9278;52.156;21.048;2023-05-10T04:46:29;7.30;99.90
18305;DHT22;9278;52.156;21.048;2023-05-10T04:48:57;7.40;99.90
18305;DHT22;9278;52.156;21.048;2023-05-10T04:51:25;7.60;99.90
18305;DHT22;9278;52.156;21.048;2023-05-10T04:53:53;7.60;99.90
18305;DHT22;9278;52.156;21.048;2023-05-10T04:56:32;7.70;99.90
18305;DHT22;9278;52.156;21.048;2023-05-10T04:59:01;7.80;99.90
18305;DHT22;9278;52.156;21.048;2023-05-10T05:01:30;7.90;99.90
18305;DHT22;9278;52.156;21.048;2023-05-10T05:03:59;8.00;99.90
18305;DHT22;9278;52.156;21.048;2023-05-10T05:06:27;8.00;99.90
18305;DHT22;9278;52.156;21.048;2023-05-10T05:08:55;8.10;99.90
18305;DHT22;9278;52.156;21.048;2023-05-10T05:11:23;8.30;99.90
18305;DHT22;9278;52.156;21.048;2023-05-10T05:13:52;8.40;99.90
18305;DHT22;9278;52.156;21.048;2023-05-10T05:16:20;9.20;99.90
18305;DHT22;9278;52.156;21.048;2023-05-10T05:18:50;8.60;99.90
18305;DHT22;9278;52.156;21.048;2023-05-10T05:21:19;8.70;99.90
18305;DHT22;9278;52.156;21.048;2023-05-10T05:23:48;8.90;99.90
18305;DHT22;9278;52.156;21.048;2023-05-10T05:26:16;9.00;99.90
18305;DHT22;9278;52.156;21.048;2023-05-10T05:28:44;9.20;99.90
18305;DHT22;9278;52.156;21.048;2023-05-10T05:31:12;9.20;99.90
18305;DHT22;9278;52.156;21.048;2023-05-10T05:33:41;9.30;99.90
18305;DHT22;9278;52.156;21.048;2023-05-10T05:36:10;9.40;99.90
18305;DHT22;9278;52.156;21.048;2023-05-10T05:38:38;9.60;99.90
18305;DHT22;9278;52.156;21.048;2023-05-10T05:41:07;9.70;99.90
18305;DHT22;9278;52.156;21.048;2023-05-10T05:43:35;10.20;99.90
18305;DHT22;9278;52.156;21.048;2023-05-10T05:46:04;10.00;99.90
18305;DHT22;9278;52.156;21.048;2023-05-10T05:48:32;10.10;99.90
18305;DHT22;9278;52.156;21.048;2023-05-10T05:51:01;10.20;99.90
18305;DHT22;9278;52.156;21.048;2023-05-10T05:53:33;10.30;99.90
18305;DHT22;9278;52.156;21.048;2023-05-10T05:56:02;10.40;99.90
18305;DHT22;9278;52.156;21.048;2023-05-10T05:58:30;10.50;99.90
18305;DHT22;9278;52.156;21.048;2023-05-10T06:00:58;10.50;99.90
18305;DHT22;9278;52.156;21.048;2023-05-10T06:03:27;10.80;99.90
18305;DHT22;9278;52.156;21.048;2023-05-10T06:05:55;10.80;99.90
18305;DHT22;9278;52.156;21.048;2023-05-10T06:08:23;10.90;99.90
18305;DHT22;9278;52.156;21.048;2023-05-10T06:10:53;11.10;99.90
18305;DHT22;9278;52.156;21.048;2023-05-10T06:13:22;11.10;99.90
18305;DHT22;9278;52.156;21.048;2023-05-10T06:15:50;11.20;99.90
18305;DHT22;9278;52.156;21.048;2023-05-10T06:18:18;11.40;99.90
18305;DHT22;9278;52.156;21.048;2023-05-10T06:20:46;11.60;99.90
18305;DHT22;9278;52.156;21.048;2023-05-10T06:23:14;11.70;99.90
18305;DHT22;9278;52.156;21.048;2023-05-10T06:25:43;11.90;99.90
18305;DHT22;9278;52.156;21.048;2023-05-10T06:28:12;11.90;99.90
18305;DHT22;9278;52.156;21.048;2023-05-10T06:30:40;12.10;99.90
18305;DHT22;9278;52.156;21.048;2023-05-10T06:33:09;12.20;99.90
18305;DHT22;9278;52.156;21.048;2023-05-10T06:35:37;12.20;99.90
18305;DHT22;9278;52.156;21.048;2023-05-10T06:38:05;12.30;99.90
18305;DHT22;9278;52.156;21.048;2023-05-10T06:40:33;12.40;99.90
18305;DHT22;9278;52.156;21.048;2023-05-10T06:43:02;12.50;99.90
18305;DHT22;9278;52.156;21.048;2023-05-10T06:45:32;12.50;99.90
18305;DHT22;9278;52.156;21.048;2023-05-10T06:48:00;12.50;99.90
18305;DHT22;9278;52.156;21.048;2023-05-10T06:50:29;12.60;99.90
18305;DHT22;9278;52.156;21.048;2023-05-10T06:52:57;12.80;99.90
18305;DHT22;9278;52.156;21.048;2023-05-10T06:55:25;13.10;99.90
18305;DHT22;9278;52.156;21.048;2023-05-10T06:57:54;13.10;99.90
18305;DHT22;9278;52.156;21.048;2023-05-10T07:00:22;13.20;99.90
18305;DHT22;9278;52.156;21.048;2023-05-10T07:02:52;13.30;99.90
18305;DHT22;9278;52.156;21.048;2023-05-10T07:05:21;13.60;1.00
18305;DHT22;9278;52.156;21.048;2023-05-10T07:07:49;13.40;99.90
18305;DHT22;9278;52.156;21.048;2023-05-10T07:10:18;13.50;99.90
18305;DHT22;9278;52.156;21.048;2023-05-10T07:12:47;13.70;99.90
18305;DHT22;9278;52.156;21.048;2023-05-10T07:15:15;13.70;99.90
18305;DHT22;9278;52.156;21.048;2023-05-10T07:17:44;13.90;99.90
18305;DHT22;9278;52.156;21.048;2023-05-10T07:20:14;14.00;99.90
18305;DHT22;9278;52.156;21.048;2023-05-10T07:22:42;14.00;99.90
18305;DHT22;9278;52.156;21.048;2023-05-10T07:27:39;14.20;99.90
18305;DHT22;9278;52.156;21.048;2023-05-10T07:30:08;14.20;99.90
18305;DHT22;9278;52.156;21.048;2023-05-10T07:32:36;14.30;99.90
18305;DHT22;9278;52.156;21.048;2023-05-10T07:35:07;14.40;99.90
18305;DHT22;9278;52.156;21.048;2023-05-10T07:37:36;14.30;99.90
18305;DHT22;9278;52.156;21.048;2023-05-10T07:40:06;14.50;99.90
18305;DHT22;9278;52.156;21.048;2023-05-10T07:42:34;14.50;99.90
18305;DHT22;9278;52.156;21.048;2023-05-10T07:45:03;14.70;99.90
18305;DHT22;9278;52.156;21.048;2023-05-10T07:47:31;14.70;99.90
18305;DHT22;9278;52.156;21.048;2023-05-10T07:49:59;14.80;99.90
18305;DHT22;9278;52.156;21.048;2023-05-10T07:52:27;14.70;99.90
18305;DHT22;9278;52.156;21.048;2023-05-10T07:54:57;14.80;99.90
18305;DHT22;9278;52.156;21.048;2023-05-10T07:57:25;14.90;99.90
18305;DHT22;9278;52.156;21.048;2023-05-10T08:02:22;15.00;99.90
18305;DHT22;9278;52.156;21.048;2023-05-10T08:04:50;15.10;99.90
18305;DHT22;9278;52.156;21.048;2023-05-10T08:07:18;15.10;99.90
18305;DHT22;9278;52.156;21.048;2023-05-10T08:09:47;15.10;99.90
18305;DHT22;9278;52.156;21.048;2023-05-10T08:12:16;15.30;99.90
18305;DHT22;9278;52.156;21.048;2023-05-10T08:14:44;15.40;99.90
18305;DHT22;9278;52.156;21.048;2023-05-10T08:17:13;15.40;99.90
18305;DHT22;9278;52.156;21.048;2023-05-10T08:19:41;15.30;99.90
18305;DHT22;9278;52.156;21.048;2023-05-10T08:22:09;15.30;99.90
18305;DHT22;9278;52.156;21.048;2023-05-10T08:24:37;15.30;99.90
18305;DHT22;9278;52.156;21.048;2023-05-10T08:27:06;15.20;99.90
18305;DHT22;9278;52.156;21.048;2023-05-10T08:29:35;15.20;99.90
18305;DHT22;9278;52.156;21.048;2023-05-10T08:32:16;15.40;99.90
18305;DHT22;9278;52.156;21.048;2023-05-10T08:34:44;15.40;99.90
18305;DHT22;9278;52.156;21.048;2023-05-10T08:37:12;15.30;99.90
18305;DHT22;9278;52.156;21.048;2023-05-10T08:39:40;15.40;99.90
18305;DHT22;9278;52.156;21.048;2023-05-10T08:42:09;15.40;99.90
18305;DHT22;9278;52.156;21.048;2023-05-10T08:44:39;15.50;99.90
18305;DHT22;9278;52.156;21.048;2023-05-10T08:47:07;15.40;99.90
18305;DHT22;9278;52.156;21.048;2023-05-10T08:49:37;15.50;99.90
18305;DHT22;9278;52.156;21.048;2023-05-10T08:52:05;15.60;99.90
18305;DHT22;9278;52.156;21.048;2023-05-10T08:54:35;15.60;99.90
18305;DHT22;9278;52.156;21.048;2023-05-10T08:57:04;15.70;99.90
18305;DHT22;9278;52.156;21.048;2023-05-10T08:59:32;15.70;99.90
18305;DHT22;9278;52.156;21.048;2023-05-10T09:02:03;15.80;99.90
18305;DHT22;9278;52.156;21.048;2023-05-10T09:04:32;15.90;99.90
18305;DHT22;9278;52.156;21.048;2023-05-10T09:07:01;15.80;99.90
18305;DHT22;9278;52.156;21.048;2023-05-10T09:09:29;15.80;99.90
18305;DHT22;9278;52.156;21.048;2023-05-10T09:11:57;15.80;99.90
18305;DHT22;9278;52.156;21.048;2023-05-10T09:14:26;15.90;99.90
18305;DHT22;9278;52.156;21.048;2023-05-10T09:16:54;15.80;99.90
18305;DHT22;9278;52.156;21.048;2023-05-10T09:19:24;15.90;99.90
18305;DHT22;9278;52.156;21.048;2023-05-10T09:21:52;15.90;99.90
18305;DHT22;9278;52.156;21.048;2023-05-10T09:24:25;16.00;99.90
18305;DHT22;9278;52.156;21.048;2023-05-10T09:26:53;16.00;99.90
18305;DHT22;9278;52.156;21.048;2023-05-10T09:29:24;16.10;99.90
18305;DHT22;9278;52.156;21.048;2023-05-10T09:31:52;16.20;99.90
18305;DHT22;9278;52.156;21.048;2023-05-10T09:34:30;16.10;99.90
18305;DHT22;9278;52.156;21.048;2023-05-10T09:37:01;16.20;99.90
18305;DHT22;9278;52.156;21.048;2023-05-10T09:39:33;16.10;99.90
18305;DHT22;9278;52.156;21.048;2023-05-10T09:42:03;16.10;99.90
18305;DHT22;9278;52.156;21.048;2023-05-10T09:44:32;16.20;99.90
18305;DHT22;9278;52.156;21.048;2023-05-10T09:47:00;16.40;99.90
18305;DHT22;9278;52.156;21.048;2023-05-10T09:49:30;16.30;99.90
18305;DHT22;9278;52.156;21.048;2023-05-10T09:52:03;16.20;99.90
18305;DHT22;9278;52.156;21.048;2023-05-10T09:54:32;16.20;99.90
18305;DHT22;9278;52.156;21.048;2023-05-10T09:57:01;16.30;99.90
18305;DHT22;9278;52.156;21.048;2023-05-10T09:59:29;16.40;99.90
18305;DHT22;9278;52.156;21.048;2023-05-10T10:01:59;16.40;99.90
18305;DHT22;9278;52.156;21.048;2023-05-10T10:04:29;16.60;99.90
18305;DHT22;9278;52.156;21.048;2023-05-10T10:06:59;16.60;99.90
18305;DHT22;9278;52.156;21.048;2023-05-10T10:09:28;16.60;99.90
18305;DHT22;9278;52.156;21.048;2023-05-10T10:11:57;16.40;99.90
18305;DHT22;9278;52.156;21.048;2023-05-10T10:14:25;16.40;99.90
18305;DHT22;9278;52.156;21.048;2023-05-10T10:16:55;16.50;99.90
18305;DHT22;9278;52.156;21.048;2023-05-10T10:19:36;16.60;99.90
18305;DHT22;9278;52.156;21.048;2023-05-10T10:22:04;16.80;99.90
18305;DHT22;9278;52.156;21.048;2023-05-10T10:27:09;16.80;99.90
18305;DHT22;9278;52.156;21.048;2023-05-10T10:29:46;16.70;99.90
18305;DHT22;9278;52.156;21.048;2023-05-10T10:32:23;16.90;99.90
18305;DHT22;9278;52.156;21.048;2023-05-10T10:34:55;16.80;99.90
18305;DHT22;9278;52.156;21.048;2023-05-10T10:37:24;16.70;99.90
18305;DHT22;9278;52.156;21.048;2023-05-10T10:40:24;16.90;99.90
18305;DHT22;9278;52.156;21.048;2023-05-10T10:42:53;16.70;99.90
18305;DHT22;9278;52.156;21.048;2023-05-10T10:45:22;16.80;99.90
18305;DHT22;9278;52.156;21.048;2023-05-10T10:50:45;16.90;99.90
18305;DHT22;9278;52.156;21.048;2023-05-10T10:53:13;16.90;99.90
18305;DHT22;9278;52.156;21.048;2023-05-10T10:55:46;17.00;99.90
18305;DHT22;9278;52.156;21.048;2023-05-10T10:58:29;16.80;99.90
18305;DHT22;9278;52.156;21.048;2023-05-10T11:01:12;16.90;99.90
18305;DHT22;9278;52.156;21.048;2023-05-10T11:03:41;16.90;99.90
18305;DHT22;9278;52.156;21.048;2023-05-10T11:06:10;17.00;99.90
18305;DHT22;9278;52.156;21.048;2023-05-10T11:08:42;17.10;99.90
18305;DHT22;9278;52.156;21.048;2023-05-10T11:11:14;17.00;99.90
18305;DHT22;9278;52.156;21.048;2023-05-10T11:13:44;17.00;99.90
18305;DHT22;9278;52.156;21.048;2023-05-10T11:16:18;17.00;99.90
18305;DHT22;9278;52.156;21.048;2023-05-10T11:18:54;17.10;99.90
18305;DHT22;9278;52.156;21.048;2023-05-10T11:21:25;17.10;99.90
18305;DHT22;9278;52.156;21.048;2023-05-10T11:23:55;17.20;99.90
18305;DHT22;9278;52.156;21.048;2023-05-10T11:26:24;17.20;99.90
18305;DHT22;9278;52.156;21.048;2023-05-10T11:28:54;17.10;99.90
18305;DHT22;9278;52.156;21.048;2023-05-10T11:31:23;17.00;99.90
18305;DHT22;9278;52.156;21.048;2023-05-10T11:33:54;17.20;99.90
18305;DHT22;9278;52.156;21.048;2023-05-10T11:36:25;17.30;99.90
18305;DHT22;9278;52.156;21.048;2023-05-10T11:38:54;17.50;99.90
18305;DHT22;9278;52.156;21.048;2023-05-10T11:41:23;17.40;99.90
18305;DHT22;9278;52.156;21.048;2023-05-10T11:43:52;17.40;99.90
18305;DHT22;9278;52.156;21.048;2023-05-10T11:46:22;17.30;99.90
18305;DHT22;9278;52.156;21.048;2023-05-10T11:48:52;17.40;99.90
18305;DHT22;9278;52.156;21.048;2023-05-10T11:51:21;17.40;99.90
18305;DHT22;9278;52.156;21.048;2023-05-10T11:53:53;17.40;99.90
18305;DHT22;9278;52.156;21.048;2023-05-10T11:56:21;17.20;99.90
18305;DHT22;9278;52.156;21.048;2023-05-10T11:58:53;17.20;99.90
18305;DHT22;9278;52.156;21.048;2023-05-10T12:01:22;17.30;99.90
18305;DHT22;9278;52.156;21.048;2023-05-10T12:03:53;17.30;99.90
18305;DHT22;9278;52.156;21.048;2023-05-10T12:06:22;17.50;99.90
18305;DHT22;9278;52.156;21.048;2023-05-10T12:08:51;17.40;99.90
18305;DHT22;9278;52.156;21.048;2023-05-10T12:11:24;17.40;99.90
18305;DHT22;9278;52.156;21.048;2023-05-10T12:13:54;17.60;99.90
18305;DHT22;9278;52.156;21.048;2023-05-10T12:16:24;17.40;99.90
18305;DHT22;9278;52.156;21.048;2023-05-10T12:18:55;17.60;99.90
18305;DHT22;9278;52.156;21.048;2023-05-10T12:21:24;17.70;99.90
18305;DHT22;9278;52.156;21.048;2023-05-10T12:23:56;17.70;99.90
18305;DHT22;9278;52.156;21.048;2023-05-10T12:26:28;17.80;99.90
18305;DHT22;9278;52.156;21.048;2023-05-10T12:29:12;17.60;99.90
18305;DHT22;9278;52.156;21.048;2023-05-10T12:31:54;17.60;99.90
18305;DHT22;9278;52.156;21.048;2023-05-10T12:34:29;17.60;99.90
18305;DHT22;9278;52.156;21.048;2023-05-10T12:36:58;17.70;99.90
18305;DHT22;9278;52.156;21.048;2023-05-10T12:39:38;17.80;99.90
18305;DHT22;9278;52.156;21.048;2023-05-10T12:42:06;17.80;99.90
18305;DHT22;9278;52.156;21.048;2023-05-10T12:44:35;17.90;99.90
18305;DHT22;9278;52.156;21.048;2023-05-10T12:47:03;17.90;99.90
18305;DHT22;9278;52.156;21.048;2023-05-10T12:49:31;17.80;99.90
18305;DHT22;9278;52.156;21.048;2023-05-10T12:52:00;17.70;99.90
18305;DHT22;9278;52.156;21.048;2023-05-10T12:54:30;17.70;99.90
18305;DHT22;9278;52.156;21.048;2023-05-10T12:56:58;17.70;99.90
18305;DHT22;9278;52.156;21.048;2023-05-10T12:59:26;17.90;99.90
18305;DHT22;9278;52.156;21.048;2023-05-10T13:01:55;17.80;99.90
18305;DHT22;9278;52.156;21.048;2023-05-10T13:04:23;17.70;99.90
18305;DHT22;9278;52.156;21.048;2023-05-10T13:06:52;17.70;99.90
18305;DHT22;9278;52.156;21.048;2023-05-10T13:09:22;17.80;99.90
18305;DHT22;9278;52.156;21.048;2023-05-10T13:11:53;17.70;99.90
18305;DHT22;9278;52.156;21.048;2023-05-10T13:14:22;17.70;99.90
18305;DHT22;9278;52.156;21.048;2023-05-10T13:16:50;17.70;99.90
18305;DHT22;9278;52.156;21.048;2023-05-10T13:19:19;17.80;99.90
18305;DHT22;9278;52.156;21.048;2023-05-10T13:21:48;17.90;99.90
18305;DHT22;9278;52.156;21.048;2023-05-10T13:24:17;18.00;99.90
18305;DHT22;9278;52.156;21.048;2023-05-10T13:26:45;18.00;99.90
18305;DHT22;9278;52.156;21.048;2023-05-10T13:29:15;18.00;99.90
18305;DHT22;9278;52.156;21.048;2023-05-10T13:31:45;18.20;99.90
18305;DHT22;9278;52.156;21.048;2023-05-10T13:34:14;18.00;99.90
18305;DHT22;9278;52.156;21.048;2023-05-10T13:36:42;18.00;99.90
18305;DHT22;9278;52.156;21.048;2023-05-10T13:39:12;18.10;99.90
18305;DHT22;9278;52.156;21.048;2023-05-10T13:41:40;18.10;99.90
18305;DHT22;9278;52.156;21.048;2023-05-10T13:44:09;18.10;99.90
18305;DHT22;9278;52.156;21.048;2023-05-10T13:46:40;18.20;99.90
18305;DHT22;9278;52.156;21.048;2023-05-10T13:49:09;18.10;99.90
18305;DHT22;9278;52.156;21.048;2023-05-10T13:51:38;18.00;99.90
18305;DHT22;9278;52.156;21.048;2023-05-10T13:54:06;17.90;99.90
18305;DHT22;9278;52.156;21.048;2023-05-10T13:56:36;18.00;99.90
18305;DHT22;9278;52.156;21.048;2023-05-10T13:59:04;18.00;99.90
18305;DHT22;9278;52.156;21.048;2023-05-10T14:01:34;18.10;99.90
18305;DHT22;9278;52.156;21.048;2023-05-10T14:04:04;18.00;99.90
18305;DHT22;9278;52.156;21.048;2023-05-10T14:06:34;17.70;1.00
18305;DHT22;9278;52.156;21.048;2023-05-10T14:09:02;17.80;99.90
18305;DHT22;9278;52.156;21.048;2023-05-10T14:11:31;17.80;1.00
18305;DHT22;9278;52.156;21.048;2023-05-10T14:14:00;18.00;99.90
18305;DHT22;9278;52.156;21.048;2023-05-10T14:16:28;17.90;99.90
18305;DHT22;9278;52.156;21.048;2023-05-10T14:18:56;18.10;99.90
18305;DHT22;9278;52.156;21.048;2023-05-10T14:21:26;18.00;99.90
18305;DHT22;9278;52.156;21.048;2023-05-10T14:23:56;18.10;99.90
18305;DHT22;9278;52.156;21.048;2023-05-10T14:26:24;18.00;99.90
18305;DHT22;9278;52.156;21.048;2023-05-10T14:28:53;18.20;99.90
18305;DHT22;9278;52.156;21.048;2023-05-10T14:31:21;18.10;99.90
18305;DHT22;9278;52.156;21.048;2023-05-10T14:33:52;18.00;99.90
18305;DHT22;9278;52.156;21.048;2023-05-10T14:36:20;18.10;99.90
18305;DHT22;9278;52.156;21.048;2023-05-10T14:38:51;18.00;99.90
18305;DHT22;9278;52.156;21.048;2023-05-10T14:41:20;17.80;99.90
18305;DHT22;9278;52.156;21.048;2023-05-10T14:43:48;17.80;99.90
18305;DHT22;9278;52.156;21.048;2023-05-10T14:46:17;18.00;99.90
18305;DHT22;9278;52.156;21.048;2023-05-10T14:48:46;17.90;99.90
18305;DHT22;9278;52.156;21.048;2023-05-10T14:51:14;17.90;99.90
18305;DHT22;9278;52.156;21.048;2023-05-10T14:53:43;17.90;99.90
18305;DHT22;9278;52.156;21.048;2023-05-10T14:56:13;17.80;99.90
18305;DHT22;9278;52.156;21.048;2023-05-10T14:58:41;17.60;99.90
18305;DHT22;9278;52.156;21.048;2023-05-10T15:01:11;17.60;99.90
18305;DHT22;9278;52.156;21.048;2023-05-10T15:03:40;17.80;99.90
18305;DHT22;9278;52.156;21.048;2023-05-10T15:06:09;17.80;99.90
18305;DHT22;9278;52.156;21.048;2023-05-10T15:08:37;17.80;99.90
18305;DHT22;9278;52.156;21.048;2023-05-10T15:11:05;17.70;99.90
18305;DHT22;9278;52.156;21.048;2023-05-10T15:13:36;18.00;1.00
18305;DHT22;9278;52.156;21.048;2023-05-10T15:16:05;17.80;99.90
18305;DHT22;9278;52.156;21.048;2023-05-10T15:18:33;17.80;99.90
18305;DHT22;9278;52.156;21.048;2023-05-10T15:21:03;17.80;99.90
18305;DHT22;9278;52.156;21.048;2023-05-10T15:23:31;17.70;99.90
18305;DHT22;9278;52.156;21.048;2023-05-10T15:26:00;17.70;99.90
18305;DHT22;9278;52.156;21.048;2023-05-10T15:28:29;17.70;99.90
18305;DHT22;9278;52.156;21.048;2023-05-10T15:31:02;17.70;99.90
18305;DHT22;9278;52.156;21.048;2023-05-10T15:33:30;17.70;99.90
18305;DHT22;9278;52.156;21.048;2023-05-10T15:35:59;17.70;99.90
18305;DHT22;9278;52.156;21.048;2023-05-10T15:38:27;17.60;99.90
18305;DHT22;9278;52.156;21.048;2023-05-10T15:40:56;17.70;99.90
18305;DHT22;9278;52.156;21.048;2023-05-10T15:43:26;17.80;99.90
18305;DHT22;9278;52.156;21.048;2023-05-10T15:45:55;17.80;99.90
18305;DHT22;9278;52.156;21.048;2023-05-10T15:48:25;18.00;99.90
18305;DHT22;9278;52.156;21.048;2023-05-10T15:50:54;17.80;99.90
18305;DHT22;9278;52.156;21.048;2023-05-10T15:53:23;17.90;99.90
18305;DHT22;9278;52.156;21.048;2023-05-10T15:55:53;17.70;99.90
18305;DHT22;9278;52.156;21.048;2023-05-10T15:58:22;17.70;99.90
18305;DHT22;9278;52.156;21.048;2023-05-10T16:00:53;17.70;92.50
18305;DHT22;9278;52.156;21.048;2023-05-10T16:03:25;17.90;99.90
18305;DHT22;9278;52.156;21.048;2023-05-10T16:05:53;17.90;99.90
18305;DHT22;9278;52.156;21.048;2023-05-10T16:08:22;17.70;99.90